Station History

Weather Underground - logo

Station Historical Data
Daily Summary for November 11, 2017 Units:  English    Metric   Both
« Previous Day
Next Day »
Daily Weekly Monthly Yearly Custom
  High: Low: Average:
Temperature: 66.7 °F 44.3 °F 53 °F
Dew Point: 54.7 °F 42.3 °F 48.4 °F
Humidity: 96 % 61 % 85 %
Wind Speed: 5.8 mph 0.0 mph 0.8 mph
Wind Gust: 5.8 mph - -
Wind:- - SSE
Pressure: 30.14 in 30.01 in -
Precipitation: 0.00 in    
Historical Graphs
 
 
Tabular Data for November 11, 2017
Time Temperature Dew Point Pressure Wind Wind Speed Wind Gust Humidity Rainfall Rate (Hourly)
00:00 50.6 °F 45.9 °F 30.04 in Calm     84 % 0.00 in
00:05 50.2 °F 45.6 °F 30.04 in WNW 1.2 mph 1.2 mph 84 % 0.00 in
00:10 49.7 °F 45.4 °F 30.04 in Calm     85 % 0.00 in
00:15 49.5 °F 45.8 °F 30.04 in Calm     87 % 0.00 in
00:20 49.5 °F 45.8 °F 30.04 in Calm     87 % 0.00 in
00:25 49.5 °F 45.8 °F 30.04 in Calm     87 % 0.00 in
00:30 49.5 °F 45.8 °F 30.04 in Calm     87 % 0.00 in
00:35 49.5 °F 45.8 °F 30.04 in Calm     87 % 0.00 in
00:40 49.4 °F 45.7 °F 30.04 in Calm     87 % 0.00 in
00:45 49.2 °F 45.5 °F 30.05 in Calm     87 % 0.00 in
00:50 48.9 °F 45.2 °F 30.05 in Calm     87 % 0.00 in
00:55 48.6 °F 44.9 °F 30.05 in Calm     87 % 0.00 in
01:00 48.3 °F 44.9 °F 30.05 in Calm     88 % 0.00 in
01:05 48.2 °F 44.8 °F 30.05 in Calm     88 % 0.00 in
01:10 48.3 °F 45.2 °F 30.05 in Calm     89 % 0.00 in
01:11 48.3 °F 45.2 °F 30.05 in Calm     89 % 0.00 in
01:16 48.1 °F 44.7 °F 30.05 in Calm     88 % 0.00 in
01:22 48.1 °F 44.7 °F 30.05 in Calm     88 % 0.00 in
01:27 48.1 °F 44.7 °F 30.05 in Calm     88 % 0.00 in
01:32 48.1 °F 44.7 °F 30.05 in Calm     88 % 0.00 in
01:37 48.2 °F 44.8 °F 30.05 in Calm     88 % 0.00 in
01:42 48.2 °F 44.8 °F 30.05 in Calm     88 % 0.00 in
01:47 47.9 °F 44.2 °F 30.05 in Calm     87 % 0.00 in
01:52 47.1 °F 43.1 °F 30.05 in Calm     86 % 0.00 in
01:57 46.7 °F 43.3 °F 30.05 in Calm     88 % 0.00 in
02:02 46.5 °F 43.4 °F 30.05 in Calm     89 % 0.00 in
02:07 46.4 °F 43.3 °F 30.05 in Calm     89 % 0.00 in
02:12 46.4 °F 43.6 °F 30.05 in Calm     90 % 0.00 in
02:17 46.2 °F 43.1 °F 30.05 in Calm     89 % 0.00 in
02:22 46.0 °F 42.9 °F 30.05 in Calm     89 % 0.00 in
02:27 45.7 °F 42.9 °F 30.06 in Calm     90 % 0.00 in
02:32 45.5 °F 42.7 °F 30.06 in Calm     90 % 0.00 in
02:37 45.3 °F 42.5 °F 30.06 in Calm     90 % 0.00 in
02:42 45.2 °F 42.7 °F 30.06 in Calm     91 % 0.00 in
02:47 45.2 °F 42.7 °F 30.06 in Calm     91 % 0.00 in
02:52 45.3 °F 42.8 °F 30.06 in Calm     91 % 0.00 in
02:57 45.6 °F 43.4 °F 30.06 in Calm     92 % 0.00 in
03:02 45.9 °F 43.7 °F 30.06 in Calm     92 % 0.00 in
03:07 46.0 °F 43.5 °F 30.06 in Calm     91 % 0.00 in
03:12 46.1 °F 43.9 °F 30.06 in Calm     92 % 0.00 in
03:17 46.2 °F 43.7 °F 30.06 in Calm     91 % 0.00 in
03:18 46.2 °F 43.7 °F 30.06 in Calm     91 % 0.00 in
03:23 46.3 °F 43.8 °F 30.06 in Calm     91 % 0.00 in
03:28 46.3 °F 43.8 °F 30.06 in Calm     91 % 0.00 in
03:33 46.1 °F 43.6 °F 30.06 in Calm     91 % 0.00 in
03:38 45.9 °F 43.4 °F 30.06 in Calm     91 % 0.00 in
03:43 45.6 °F 42.8 °F 30.07 in Calm     90 % 0.00 in
03:48 45.5 °F 43.0 °F 30.07 in Calm     91 % 0.00 in
03:53 45.3 °F 42.8 °F 30.07 in Calm     91 % 0.00 in
03:58 45.1 °F 42.6 °F 30.07 in Calm     91 % 0.00 in
04:03 44.9 °F 42.4 °F 30.07 in Calm     91 % 0.00 in
04:08 44.9 °F 42.4 °F 30.07 in Calm     91 % 0.00 in
04:13 44.8 °F 42.3 °F 30.07 in Calm     91 % 0.00 in
04:18 44.7 °F 42.5 °F 30.07 in Calm     92 % 0.00 in
04:23 44.7 °F 42.5 °F 30.07 in Calm     92 % 0.00 in
04:28 44.8 °F 42.6 °F 30.07 in Calm     92 % 0.00 in
04:33 44.9 °F 43.0 °F 30.07 in Calm     93 % 0.00 in
04:38 44.9 °F 43.0 °F 30.08 in Calm     93 % 0.00 in
04:43 45.1 °F 43.2 °F 30.08 in Calm     93 % 0.00 in
04:48 45.0 °F 43.1 °F 30.08 in Calm     93 % 0.00 in
04:53 45.0 °F 43.1 °F 30.08 in Calm     93 % 0.00 in
04:58 45.1 °F 43.2 °F 30.08 in Calm     93 % 0.00 in
05:03 45.0 °F 43.1 °F 30.08 in Calm     93 % 0.00 in
05:08 45.0 °F 43.1 °F 30.08 in Calm     93 % 0.00 in
05:13 44.9 °F 43.0 °F 30.08 in Calm     93 % 0.00 in
05:18 45.0 °F 43.1 °F 30.08 in Calm     93 % 0.00 in
05:23 45.0 °F 43.1 °F 30.08 in Calm     93 % 0.00 in
05:28 44.9 °F 43.0 °F 30.08 in Calm     93 % 0.00 in
05:33 44.9 °F 43.0 °F 30.08 in Calm     93 % 0.00 in
05:38 44.8 °F 42.9 °F 30.08 in Calm     93 % 0.00 in
05:43 44.8 °F 42.9 °F 30.08 in Calm     93 % 0.00 in
05:48 44.7 °F 42.8 °F 30.08 in Calm     93 % 0.00 in
05:53 44.5 °F 42.6 °F 30.08 in Calm     93 % 0.00 in
05:58 44.4 °F 42.5 °F 30.08 in Calm     93 % 0.00 in
06:03 44.4 °F 42.8 °F 30.09 in Calm     94 % 0.00 in
06:08 44.3 °F 42.7 °F 30.09 in Calm     94 % 0.00 in
06:09 44.3 °F 42.7 °F 30.09 in Calm     94 % 0.00 in
06:14 44.3 °F 42.7 °F 30.09 in Calm     94 % 0.00 in
06:19 44.3 °F 42.7 °F 30.09 in NNW 1.0 mph   94 % 0.00 in
06:24 44.4 °F 42.8 °F 30.09 in NNW 1.2 mph 1.2 mph 94 % 0.00 in
06:29 44.4 °F 42.8 °F 30.09 in Calm     94 % 0.00 in
06:34 44.3 °F 42.7 °F 30.09 in Calm     94 % 0.00 in
06:39 44.3 °F 42.7 °F 30.09 in Calm     94 % 0.00 in
06:44 44.3 °F 42.7 °F 30.10 in Calm     94 % 0.00 in
06:49 44.5 °F 42.9 °F 30.10 in NNW 1.2 mph   94 % 0.00 in
06:54 44.8 °F 43.2 °F 30.10 in NNW 1.2 mph 1.2 mph 94 % 0.00 in
06:59 45.1 °F 43.8 °F 30.10 in NNW 1.2 mph 1.2 mph 95 % 0.00 in
07:04 45.4 °F 44.1 °F 30.10 in NNW 2.0 mph 2.0 mph 95 % 0.00 in
07:09 45.7 °F 44.4 °F 30.10 in NE 3.5 mph 3.5 mph 95 % 0.00 in
07:14 46.1 °F 44.7 °F 30.10 in NE 1.2 mph   95 % 0.00 in
07:19 46.4 °F 45.0 °F 30.11 in NE 2.3 mph 2.3 mph 95 % 0.00 in
07:24 46.7 °F 45.3 °F 30.11 in NE 1.2 mph 1.2 mph 95 % 0.00 in
07:29 47.1 °F 45.7 °F 30.11 in NE 1.2 mph   95 % 0.00 in
07:34 47.3 °F 45.9 °F 30.11 in NE 2.3 mph 2.3 mph 95 % 0.00 in
07:39 47.6 °F 46.2 °F 30.11 in NE 1.2 mph 1.2 mph 95 % 0.00 in
07:44 47.9 °F 46.5 °F 30.11 in NE 1.2 mph   95 % 0.00 in
07:49 48.1 °F 47.0 °F 30.11 in NE 1.2 mph 1.2 mph 96 % 0.00 in
07:54 48.3 °F 47.2 °F 30.11 in NE 1.2 mph 1.2 mph 96 % 0.00 in
07:59 48.5 °F 47.4 °F 30.12 in NE 1.2 mph 1.2 mph 96 % 0.00 in
08:04 48.6 °F 47.5 °F 30.12 in NE 3.5 mph 3.5 mph 96 % 0.00 in
08:09 48.9 °F 47.8 °F 30.12 in NE 1.2 mph 1.2 mph 96 % 0.00 in
08:14 49.1 °F 48.0 °F 30.12 in NE 1.2 mph 1.2 mph 96 % 0.00 in
08:19 49.3 °F 48.2 °F 30.12 in NE 1.2 mph 1.2 mph 96 % 0.00 in
08:24 49.5 °F 48.4 °F 30.12 in NE 3.5 mph 3.5 mph 96 % 0.00 in
08:29 49.7 °F 48.6 °F 30.13 in NE 1.0 mph 1.0 mph 96 % 0.00 in
08:34 49.9 °F 48.8 °F 30.13 in NE 2.3 mph 2.3 mph 96 % 0.00 in
08:39 50.2 °F 49.1 °F 30.13 in NE 3.0 mph 3.0 mph 96 % 0.00 in
08:44 50.3 °F 49.2 °F 30.13 in East 2.0 mph 2.0 mph 96 % 0.00 in
08:49 50.5 °F 49.4 °F 30.13 in East 1.2 mph 1.2 mph 96 % 0.00 in
08:54 50.7 °F 49.6 °F 30.13 in East 2.3 mph 2.3 mph 96 % 0.00 in
08:59 50.9 °F 49.8 °F 30.14 in ESE 3.5 mph 3.5 mph 96 % 0.00 in
09:04 51.2 °F 50.1 °F 30.14 in ESE 1.2 mph 1.2 mph 96 % 0.00 in
09:09 51.5 °F 50.4 °F 30.13 in ESE 2.3 mph 2.3 mph 96 % 0.00 in
09:14 51.8 °F 50.7 °F 30.14 in ESE 3.5 mph 3.5 mph 96 % 0.00 in
09:19 51.9 °F 50.8 °F 30.14 in ESE 3.5 mph 3.5 mph 96 % 0.00 in
09:22 52.1 °F 51.0 °F 30.14 in ESE 3.0 mph 3.0 mph 96 % 0.00 in
09:27 52.3 °F 51.2 °F 30.14 in ESE 2.3 mph 2.3 mph 96 % 0.00 in
09:32 52.4 °F 51.3 °F 30.14 in SE 2.3 mph 2.3 mph 96 % 0.00 in
09:37 52.6 °F 51.5 °F 30.13 in SE 3.5 mph 3.5 mph 96 % 0.00 in
09:43 52.9 °F 51.8 °F 30.14 in SSE 5.8 mph 5.8 mph 96 % 0.00 in
09:48 53.3 °F 52.2 °F 30.13 in SE 5.8 mph 5.8 mph 96 % 0.00 in
09:53 53.6 °F 52.5 °F 30.13 in SE 3.5 mph 3.5 mph 96 % 0.00 in
09:58 54.2 °F 52.8 °F 30.13 in SSE 2.3 mph 2.3 mph 95 % 0.00 in
10:03 55.1 °F 53.4 °F 30.13 in South 3.5 mph 3.5 mph 94 % 0.00 in
10:08 55.9 °F 53.3 °F 30.12 in SSE 3.5 mph 3.5 mph 91 % 0.00 in
10:13 56.7 °F 53.8 °F 30.12 in SSE 3.5 mph 3.5 mph 90 % 0.00 in
10:18 57.4 °F 53.6 °F 30.12 in East 3.5 mph 3.5 mph 87 % 0.00 in
10:23 58.0 °F 53.5 °F 30.12 in SSE 3.5 mph 3.5 mph 85 % 0.00 in
10:28 58.2 °F 53.4 °F 30.12 in SSE 4.6 mph 4.6 mph 84 % 0.00 in
10:30 58.3 °F 53.2 °F 30.12 in ESE 3.5 mph 3.5 mph 83 % 0.00 in
10:35 58.5 °F 53.7 °F 30.12 in SE 3.5 mph 3.5 mph 84 % 0.00 in
10:40 58.8 °F 53.6 °F 30.12 in SSW 2.3 mph 2.3 mph 83 % 0.00 in
10:45 58.9 °F 53.4 °F 30.11 in ESE 4.6 mph 4.6 mph 82 % 0.00 in
10:50 58.7 °F 53.2 °F 30.11 in SSE 3.5 mph 3.5 mph 82 % 0.00 in
10:55 58.6 °F 53.1 °F 30.11 in East 3.5 mph 3.5 mph 82 % 0.00 in
11:00 58.5 °F 53.0 °F 30.11 in East 3.5 mph 3.5 mph 82 % 0.00 in
11:05 58.7 °F 53.2 °F 30.10 in SE 3.5 mph 3.5 mph 82 % 0.00 in
11:07 58.8 °F 53.3 °F 30.10 in Calm     82 % 0.00 in
11:12 59.3 °F 53.5 °F 30.10 in SSE 3.5 mph 3.5 mph 81 % 0.00 in
11:13 59.3 °F 53.5 °F 30.10 in SSE 3.5 mph 3.5 mph 81 % 0.00 in
11:18 59.6 °F 53.4 °F 30.10 in South 4.0 mph 4.0 mph 80 % 0.00 in
11:23 59.7 °F 53.5 °F 30.10 in NE 2.3 mph 2.3 mph 80 % 0.00 in
11:28 59.9 °F 53.7 °F 30.09 in SSE 2.3 mph 2.3 mph 80 % 0.00 in
11:33 60.0 °F 53.5 °F 30.09 in SE 3.5 mph 3.5 mph 79 % 0.00 in
11:38 59.6 °F 53.4 °F 30.09 in ENE 2.0 mph 2.0 mph 80 % 0.00 in
11:43 59.8 °F 53.3 °F 30.09 in SW 3.5 mph 3.5 mph 79 % 0.00 in
11:48 60.1 °F 53.6 °F 30.08 in ENE 1.2 mph 1.2 mph 79 % 0.00 in
11:53 60.4 °F 53.5 °F 30.08 in South 3.5 mph 3.5 mph 78 % 0.00 in
11:58 60.4 °F 53.2 °F 30.08 in North 2.3 mph 2.3 mph 77 % 0.00 in
12:03 60.3 °F 53.1 °F 30.08 in East 1.2 mph 1.2 mph 77 % 0.00 in
12:08 60.7 °F 53.4 °F 30.07 in WSW 2.3 mph 2.3 mph 77 % 0.00 in
12:13 61.0 °F 53.4 °F 30.07 in Calm     76 % 0.00 in
12:18 61.1 °F 53.5 °F 30.07 in SSW 1.2 mph   76 % 0.00 in
12:23 61.1 °F 53.1 °F 30.06 in NW 2.3 mph 2.3 mph 75 % 0.00 in
12:28 61.3 °F 54.0 °F 30.06 in South 3.5 mph 3.5 mph 77 % 0.00 in
12:33 61.7 °F 53.7 °F 30.06 in North 1.2 mph 1.2 mph 75 % 0.00 in
12:38 62.4 °F 53.6 °F 30.06 in SSW 3.5 mph 3.5 mph 73 % 0.00 in
12:43 63.1 °F 54.3 °F 30.05 in SSE 2.0 mph 2.0 mph 73 % 0.00 in
12:44 63.2 °F 54.0 °F 30.05 in SE 2.3 mph 2.3 mph 72 % 0.00 in
12:49 63.3 °F 54.1 °F 30.05 in ENE 1.0 mph   72 % 0.00 in
12:54 63.5 °F 54.3 °F 30.04 in South 1.2 mph 1.2 mph 72 % 0.00 in
12:59 63.9 °F 54.3 °F 30.04 in SE 1.2 mph 1.2 mph 71 % 0.00 in
13:04 64.1 °F 54.1 °F 30.04 in NNW 1.0 mph 1.0 mph 70 % 0.00 in
13:09 64.3 °F 54.7 °F 30.04 in SSW 1.0 mph   71 % 0.00 in
13:14 64.5 °F 54.1 °F 30.04 in SSE 2.3 mph 2.3 mph 69 % 0.00 in
13:19 64.5 °F 53.3 °F 30.04 in NW 1.2 mph 1.2 mph 67 % 0.00 in
13:20 64.4 °F 53.2 °F 30.04 in NW 1.2 mph 1.2 mph 67 % 0.00 in
13:25 64.3 °F 53.5 °F 30.04 in South 4.6 mph 4.6 mph 68 % 0.00 in
13:30 64.7 °F 53.5 °F 30.03 in Calm     67 % 0.00 in
13:35 65.0 °F 53.4 °F 30.03 in SE 1.2 mph   66 % 0.00 in
13:43 65.6 °F 53.5 °F 30.03 in NNW 1.2 mph   65 % 0.00 in
13:48 65.7 °F 53.2 °F 30.03 in ESE 1.2 mph   64 % 0.00 in
13:53 65.7 °F 53.2 °F 30.03 in SW 1.2 mph 1.2 mph 64 % 0.00 in
13:58 66.2 °F 53.2 °F 30.03 in SE 1.2 mph 1.2 mph 63 % 0.00 in
14:03 66.4 °F 53.0 °F 30.03 in SSE 1.2 mph 1.2 mph 62 % 0.00 in
14:08 66.6 °F 52.7 °F 30.02 in Calm     61 % 0.00 in
14:13 66.7 °F 53.3 °F 30.02 in South 1.2 mph 1.2 mph 62 % 0.00 in
14:18 66.7 °F 52.8 °F 30.02 in SSW 1.2 mph 1.2 mph 61 % 0.00 in
14:23 66.5 °F 53.5 °F 30.02 in WNW 2.3 mph 2.3 mph 63 % 0.00 in
14:30 66.3 °F 53.3 °F 30.02 in North 1.2 mph 1.2 mph 63 % 0.00 in
14:35 66.1 °F 52.7 °F 30.02 in NW 1.2 mph   62 % 0.00 in
14:40 66.1 °F 53.1 °F 30.02 in SSE 2.0 mph 2.0 mph 63 % 0.00 in
14:45 66.1 °F 52.7 °F 30.02 in Calm     62 % 0.00 in
14:50 65.9 °F 52.5 °F 30.02 in Calm     62 % 0.00 in
14:57 65.6 °F 52.2 °F 30.01 in Calm     62 % 0.00 in
15:02 65.6 °F 52.2 °F 30.01 in Calm   0.2 mph 62 % 0.00 in
15:07 65.5 °F 52.6 °F 30.02 in Calm     63 % 0.00 in
15:12 65.5 °F 52.1 °F 30.01 in Calm     62 % 0.00 in
15:17 65.4 °F 52.5 °F 30.01 in South 1.2 mph   63 % 0.00 in
15:22 65.4 °F 52.5 °F 30.01 in Calm     63 % 0.00 in
15:27 65.3 °F 52.4 °F 30.01 in Calm     63 % 0.00 in
15:33 65.2 °F 52.7 °F 30.01 in Calm     64 % 0.00 in
15:39 65.0 °F 52.5 °F 30.01 in Calm     64 % 0.00 in
15:44 64.8 °F 52.3 °F 30.02 in Calm     64 % 0.00 in
15:49 64.7 °F 51.8 °F 30.02 in West 1.2 mph 1.2 mph 63 % 0.00 in
15:54 64.7 °F 52.2 °F 30.02 in WNW 1.2 mph 1.2 mph 64 % 0.00 in
15:59 64.5 °F 51.6 °F 30.02 in NW 1.2 mph   63 % 0.00 in
16:04 64.4 °F 52.4 °F 30.02 in Calm     65 % 0.00 in
16:09 64.2 °F 52.2 °F 30.02 in Calm     65 % 0.00 in
16:14 63.9 °F 52.3 °F 30.02 in Calm     66 % 0.00 in
16:20 63.7 °F 52.1 °F 30.02 in Calm     66 % 0.00 in
16:25 63.3 °F 51.7 °F 30.02 in Calm     66 % 0.00 in
16:37 62.6 °F 51.5 °F 30.02 in Calm     67 % 0.00 in
16:42 62.2 °F 51.9 °F 30.02 in Calm     69 % 0.00 in
16:47 61.7 °F 51.8 °F 30.02 in Calm     70 % 0.00 in
16:52 61.1 °F 52.0 °F 30.02 in Calm     72 % 0.00 in
16:57 60.6 °F 51.9 °F 30.02 in Calm     73 % 0.00 in
17:02 60.0 °F 52.1 °F 30.02 in Calm     75 % 0.00 in
17:07 59.5 °F 51.6 °F 30.02 in Calm     75 % 0.00 in
17:08 59.4 °F 51.8 °F 30.02 in Calm     76 % 0.00 in
17:13 58.9 °F 51.7 °F 30.03 in Calm     77 % 0.00 in
17:18 58.2 °F 51.4 °F 30.03 in Calm     78 % 0.00 in
17:23 57.8 °F 51.7 °F 30.03 in Calm     80 % 0.00 in
17:28 57.5 °F 51.7 °F 30.03 in Calm     81 % 0.00 in
17:33 57.2 °F 51.8 °F 30.03 in Calm     82 % 0.00 in
17:40 56.8 °F 51.4 °F 30.03 in Calm     82 % 0.00 in
17:45 56.5 °F 51.4 °F 30.03 in Calm     83 % 0.00 in
17:50 56.2 °F 51.1 °F 30.04 in Calm     83 % 0.00 in
17:55 55.8 °F 51.0 °F 30.04 in Calm     84 % 0.00 in
18:00 55.5 °F 51.1 °F 30.04 in Calm     85 % 0.00 in
18:05 55.3 °F 50.9 °F 30.04 in Calm     85 % 0.00 in
18:10 55.1 °F 50.7 °F 30.04 in Calm     85 % 0.00 in
18:15 54.8 °F 50.4 °F 30.04 in Calm     85 % 0.00 in
18:24 54.5 °F 50.7 °F 30.04 in Calm     87 % 0.00 in
18:29 54.3 °F 50.5 °F 30.05 in Calm     87 % 0.00 in
18:34 54.1 °F 50.3 °F 30.04 in Calm     87 % 0.00 in
18:39 54.1 °F 50.6 °F 30.04 in Calm     88 % 0.00 in
18:45 54.0 °F 50.2 °F 30.04 in Calm     87 % 0.00 in
18:50 53.7 °F 50.2 °F 30.05 in Calm     88 % 0.00 in
18:55 53.5 °F 50.0 °F 30.04 in Calm     88 % 0.00 in
19:00 53.2 °F 49.7 °F 30.04 in Calm     88 % 0.00 in
19:05 53.0 °F 49.8 °F 30.04 in Calm     89 % 0.00 in
19:10 52.9 °F 49.7 °F 30.04 in Calm     89 % 0.00 in
19:15 52.9 °F 50.0 °F 30.05 in Calm     90 % 0.00 in
19:20 52.7 °F 49.5 °F 30.05 in Calm     89 % 0.00 in
19:22 52.6 °F 49.4 °F 30.04 in Calm     89 % 0.00 in
19:24 52.5 °F 49.4 °F 30.04 in Calm     89 % 0.00 in
19:29 52.4 °F 49.3 °F 30.05 in Calm     89 % 0.00 in
19:34 52.1 °F 49.3 °F 30.04 in Calm     90 % 0.00 in
19:49 51.6 °F 48.5 °F 30.05 in Calm     89 % 0.00 in
19:54 51.4 °F 48.3 °F 30.05 in Calm     89 % 0.00 in
19:59 51.2 °F 48.1 °F 30.05 in Calm     89 % 0.00 in
20:04 51.0 °F 48.2 °F 30.05 in Calm     90 % 0.00 in
20:09 51.0 °F 48.2 °F 30.05 in Calm     90 % 0.00 in
20:15 51.0 °F 48.2 °F 30.05 in Calm     90 % 0.00 in
20:19 51.0 °F 48.2 °F 30.06 in Calm     90 % 0.00 in
20:25 50.9 °F 48.1 °F 30.06 in Calm     90 % 0.00 in
20:30 51.0 °F 48.2 °F 30.06 in Calm     90 % 0.00 in
20:35 51.0 °F 48.2 °F 30.06 in Calm     90 % 0.00 in
20:40 50.9 °F 48.1 °F 30.06 in Calm     90 % 0.00 in
20:45 50.7 °F 47.9 °F 30.06 in Calm     90 % 0.00 in
20:50 50.7 °F 47.9 °F 30.06 in Calm     90 % 0.00 in
20:55 50.8 °F 48.0 °F 30.06 in Calm     90 % 0.00 in
21:00 50.8 °F 47.7 °F 30.07 in Calm     89 % 0.00 in
21:05 50.8 °F 48.0 °F 30.07 in Calm     90 % 0.00 in
21:10 50.7 °F 47.9 °F 30.07 in Calm     90 % 0.00 in
21:15 50.6 °F 47.5 °F 30.07 in Calm     89 % 0.00 in
21:20 50.3 °F 47.2 °F 30.07 in Calm     89 % 0.00 in
21:21 50.3 °F 47.2 °F 30.07 in Calm     89 % 0.00 in
21:26 50.0 °F 46.9 °F 30.07 in Calm     89 % 0.00 in
21:31 49.7 °F 46.6 °F 30.08 in Calm     89 % 0.00 in
21:37 49.6 °F 46.8 °F 30.07 in Calm     90 % 0.00 in
21:42 49.7 °F 47.2 °F 30.08 in Calm     91 % 0.00 in
21:47 49.9 °F 47.4 °F 30.07 in Calm     91 % 0.00 in
21:52 49.9 °F 47.4 °F 30.07 in Calm     91 % 0.00 in
21:57 50.0 °F 47.5 °F 30.07 in Calm     91 % 0.00 in
22:02 50.0 °F 47.5 °F 30.07 in Calm     91 % 0.00 in
22:07 49.9 °F 47.1 °F 30.07 in Calm     90 % 0.00 in
22:12 49.8 °F 47.3 °F 30.07 in Calm     91 % 0.00 in
22:17 49.7 °F 47.2 °F 30.08 in Calm     91 % 0.00 in
22:22 49.4 °F 46.6 °F 30.07 in Calm     90 % 0.00 in
22:27 49.2 °F 46.7 °F 30.07 in Calm     91 % 0.00 in
22:32 49.2 °F 46.7 °F 30.07 in Calm     91 % 0.00 in
22:37 49.4 °F 46.9 °F 30.08 in Calm     91 % 0.00 in
22:42 49.5 °F 47.3 °F 30.07 in Calm     92 % 0.00 in
22:47 49.6 °F 47.1 °F 30.07 in Calm     91 % 0.00 in
22:52 49.5 °F 47.0 °F 30.07 in Calm     91 % 0.00 in
22:57 49.6 °F 47.1 °F 30.08 in Calm     91 % 0.00 in
23:02 49.6 °F 47.1 °F 30.08 in Calm     91 % 0.00 in
23:07 49.5 °F 47.0 °F 30.08 in Calm     91 % 0.00 in
23:12 49.5 °F 47.0 °F 30.07 in Calm     91 % 0.00 in
23:17 49.6 °F 47.1 °F 30.07 in Calm     91 % 0.00 in
23:22 49.6 °F 47.1 °F 30.07 in Calm     91 % 0.00 in
23:23 49.6 °F 47.1 °F 30.07 in Calm     91 % 0.00 in
23:28 49.5 °F 46.7 °F 30.07 in Calm     90 % 0.00 in
23:33 49.2 °F 46.4 °F 30.07 in Calm     90 % 0.00 in
23:38 49.2 °F 46.7 °F 30.07 in Calm     91 % 0.00 in
23:43 49.1 °F 46.3 °F 30.07 in Calm     90 % 0.00 in
23:48 49.0 °F 46.2 °F 30.07 in Calm     90 % 0.00 in
23:53 48.7 °F 45.9 °F 30.07 in Calm     90 % 0.00 in
23:58 48.5 °F 45.7 °F 30.07 in Calm     90 % 0.00 in
Park Place, Exeter, Tulare County, California, USA
Compliments of Weather Underground - 2.75 mb